Time;durP1;ratioP1;P1;durP2;ratioP2;P2;SDS_P1;SDS_P2;PMS_P1;PMS_P2;Temp;Humidity;BMP_temperature;BMP_pressure;BME280_temperature;BME280_humidity;BME280_pressure;Samples;Min_cycle;Max_cycle;Signal;HPM_P1;HPM_P2
2022/05/14 00:01:28;;;;;;;0.00;0.00;;;14.80;93.50;;;;;;4993197;28;20042;-72
2022/05/14 00:03:54;;;;;;;0.80;0.55;;;14.70;93.80;;;;;;4994336;28;20548;-72
2022/05/14 00:06:23;;;;;;;0.00;0.00;;;14.70;93.90;;;;;;4993111;28;20092;-72
2022/05/14 00:08:50;;;;;;;0.13;0.13;;;14.70;94.20;;;;;;4976554;28;20038;-72
2022/05/14 00:14:03;;;;;;;0.00;0.00;;;14.50;94.50;;;;;;4993538;28;20397;-72
2022/05/14 00:16:32;;;;;;;0.00;0.00;;;14.40;96.00;;;;;;4993268;28;20042;-73
2022/05/14 00:18:59;;;;;;;0.05;0.05;;;14.40;95.80;;;;;;4992541;28;20054;-72
2022/05/14 00:21:24;;;;;;;0.05;0.05;;;14.20;97.50;;;;;;4993229;28;20561;-72
2022/05/14 00:23:51;;;;;;;0.43;0.43;;;14.00;98.90;;;;;;4993032;28;20113;-72
2022/05/14 00:26:18;;;;;;;0.00;0.00;;;13.90;99.90;;;;;;4993878;28;20033;-72
2022/05/14 00:28:44;;;;;;;0.10;0.10;;;13.70;99.90;;;;;;4992360;28;20030;-72
2022/05/14 00:31:09;;;;;;;0.05;0.05;;;13.40;99.90;;;;;;4992828;28;20041;-72
2022/05/14 00:33:35;;;;;;;0.43;0.35;;;13.30;99.90;;;;;;4994035;28;20115;-72
2022/05/14 00:36:01;;;;;;;0.10;0.10;;;13.00;99.90;;;;;;4992560;28;20061;-72
2022/05/14 00:38:29;;;;;;;0.43;0.43;;;13.20;99.90;;;;;;4992289;28;20109;-72
2022/05/14 00:41:02;;;;;;;0.10;0.10;;;13.00;99.90;;;;;;4993582;28;20022;-72
2022/05/14 00:43:29;;;;;;;1.13;0.77;;;13.20;99.90;;;;;;4994370;28;20047;-72
2022/05/14 00:46:46;;;;;;;0.10;0.10;;;13.20;99.90;;;;;;4992520;28;20022;-73
2022/05/14 00:49:13;;;;;;;0.00;0.00;;;13.30;99.90;;;;;;4978469;28;20041;-73
2022/05/14 00:51:43;;;;;;;0.10;0.10;;;13.30;99.90;;;;;;4992492;28;20116;-73
2022/05/14 00:54:29;;;;;;;0.35;0.32;;;13.40;99.90;;;;;;4991921;28;20072;-73
2022/05/14 00:57:06;;;;;;;0.00;0.00;;;13.50;99.90;;;;;;4992586;28;20088;-73
2022/05/14 00:59:32;;;;;;;0.00;0.00;;;13.50;99.90;;;;;;4992025;28;20030;-73
2022/05/14 01:01:58;;;;;;;0.45;0.45;;;13.50;99.90;;;;;;4993238;28;20041;-73
2022/05/14 01:04:25;;;;;;;4.65;0.52;;;13.70;99.20;;;;;;4993942;28;20143;-73
2022/05/14 01:07:22;;;;;;;31.15;1.67;;;13.70;99.90;;;;;;5000168;28;20053;-73
2022/05/14 01:09:55;;;;;;;0.38;0.35;;;13.60;99.90;;;;;;4999893;28;20037;-73
2022/05/14 01:12:24;;;;;;;0.20;0.20;;;13.50;99.90;;;;;;5007642;28;20095;-74
2022/05/14 01:14:51;;;;;;;0.25;0.25;;;13.60;99.90;;;;;;5010232;28;20470;-73
2022/05/14 01:17:17;;;;;;;0.00;0.00;;;13.60;99.90;;;;;;4992958;28;20041;-74
2022/05/14 01:19:43;;;;;;;0.00;0.00;;;13.70;99.90;;;;;;4991490;28;20035;-74
2022/05/14 01:22:49;;;;;;;0.13;0.10;;;13.70;99.90;;;;;;4993125;28;20157;-73
2022/05/14 01:28:14;;;;;;;0.57;0.32;;;13.40;99.90;;;;;;5011570;28;20041;-74
2022/05/14 01:30:57;;;;;;;0.00;0.00;;;13.20;99.90;;;;;;5011212;28;20025;-73
2022/05/14 01:33:24;;;;;;;0.10;0.10;;;13.00;99.90;;;;;;5011387;28;20030;-73
2022/05/14 01:35:50;;;;;;;0.32;0.30;;;13.10;99.90;;;;;;5010896;28;20022;-73
2022/05/14 01:38:17;;;;;;;0.32;0.32;;;13.10;99.90;;;;;;5010942;28;20030;-72
2022/05/14 01:40:43;;;;;;;1.10;1.00;;;12.90;99.90;;;;;;5007271;28;20018;-73
2022/05/14 01:43:09;;;;;;;0.00;0.00;;;12.90;99.90;;;;;;4991327;28;20091;-73
2022/05/14 01:45:36;;;;;;;0.00;0.00;;;13.00;99.90;;;;;;4992576;28;20096;-73
2022/05/14 01:48:02;;;;;;;0.10;0.10;;;13.00;99.90;;;;;;4991157;28;20023;-72
2022/05/14 01:50:28;;;;;;;0.00;0.00;;;13.00;99.90;;;;;;4991032;28;20105;-73
2022/05/14 01:52:53;;;;;;;0.00;0.00;;;13.00;99.90;;;;;;4992811;28;20074;-72
2022/05/14 01:55:19;;;;;;;0.00;0.00;;;13.10;99.90;;;;;;4992603;28;20026;-73
2022/05/14 01:57:45;;;;;;;0.00;0.00;;;13.10;99.90;;;;;;5007833;28;20034;-72
2022/05/14 02:00:14;;;;;;;0.20;0.20;;;13.10;99.90;;;;;;4990577;28;20384;-73
2022/05/14 02:02:40;;;;;;;0.10;0.10;;;13.00;99.90;;;;;;4990852;28;20026;-73
2022/05/14 02:05:07;;;;;;;0.20;0.20;;;12.90;99.90;;;;;;4990707;28;20026;-73
2022/05/14 02:07:33;;;;;;;1.35;0.38;;;12.40;99.90;;;;;;4991216;28;20065;-73
2022/05/14 02:09:58;;;;;;;0.32;0.32;;;12.10;99.90;;;;;;4990838;28;20502;-73
2022/05/14 02:12:24;;;;;;;0.00;0.00;;;12.10;99.90;;;;;;4990898;28;20486;-73
2022/05/14 02:14:50;;;;;;;0.10;0.10;;;12.30;99.90;;;;;;4994431;28;20148;-73
2022/05/14 02:17:16;;;;;;;0.20;0.20;;;12.40;99.90;;;;;;5010505;28;20121;-73
2022/05/14 02:19:42;;;;;;;0.08;0.08;;;12.40;99.90;;;;;;5010459;28;20397;-73
2022/05/14 02:22:07;;;;;;;0.10;0.10;;;12.30;99.90;;;;;;5012052;28;20030;-74
2022/05/14 02:24:36;;;;;;;0.00;0.00;;;12.20;99.90;;;;;;5010242;28;20079;-73
2022/05/14 02:27:02;;;;;;;0.13;0.13;;;11.90;99.90;;;;;;5011786;28;20053;-73
2022/05/14 02:29:50;;;;;;;0.08;0.08;;;11.90;99.90;;;;;;5010967;28;20635;-73
2022/05/14 02:32:14;;;;;;;0.00;0.00;;;11.90;99.90;;;;;;5010077;28;20046;-73
2022/05/14 02:34:40;;;;;;;9.30;1.55;;;11.90;99.90;;;;;;5011244;28;20040;-73
2022/05/14 02:37:06;;;;;;;0.15;0.15;;;11.90;99.90;;;;;;5011596;28;20037;-73
2022/05/14 02:39:31;;;;;;;0.03;0.03;;;12.00;99.90;;;;;;5009714;28;20064;-72
2022/05/14 02:41:57;;;;;;;0.10;0.10;;;12.00;99.90;;;;;;5011304;28;20026;-73
2022/05/14 02:44:23;;;;;;;0.40;0.40;;;12.00;99.90;;;;;;5010756;28;20079;-73
2022/05/14 02:46:48;;;;;;;0.30;0.30;;;12.00;99.90;;;;;;5010948;28;20045;-73
2022/05/14 02:49:14;;;;;;;0.05;0.05;;;12.20;99.90;;;;;;5010721;28;20033;-73
2022/05/14 02:51:40;;;;;;;2.55;1.30;;;12.20;99.90;;;;;;5009577;28;20059;-73
2022/05/14 02:54:06;;;;;;;0.00;0.00;;;12.30;99.90;;;;;;5009437;28;20026;-73
2022/05/14 02:56:31;;;;;;;0.00;0.00;;;12.20;99.90;;;;;;5011036;28;20041;-73
2022/05/14 02:59:09;;;;;;;0.00;0.00;;;12.10;99.90;;;;;;5009420;28;20112;-72
2022/05/14 03:01:47;;;;;;;0.10;0.10;;;12.00;99.90;;;;;;5026133;28;20034;-73
2022/05/14 03:04:18;;;;;;;0.00;0.00;;;11.90;99.90;;;;;;5011028;28;20375;-73
2022/05/14 03:06:44;;;;;;;0.10;0.10;;;12.00;99.90;;;;;;5009519;28;20040;-73
2022/05/14 03:09:10;;;;;;;0.00;0.00;;;12.00;99.90;;;;;;5009573;28;20452;-73
2022/05/14 03:11:37;;;;;;;0.10;0.10;;;11.90;99.90;;;;;;5009364;28;20529;-73
2022/05/14 03:14:02;;;;;;;0.00;0.00;;;11.80;99.90;;;;;;5009316;28;20486;-73
2022/05/14 03:16:28;;;;;;;0.00;0.00;;;11.80;99.90;;;;;;4992931;28;20044;-73
2022/05/14 03:18:54;;;;;;;0.35;0.35;;;11.90;99.90;;;;;;4989709;28;20046;-71
2022/05/14 03:21:20;;;;;;;0.47;0.45;;;11.80;99.90;;;;;;4990111;28;20367;-71
2022/05/14 03:23:46;;;;;;;0.20;0.20;;;11.90;99.90;;;;;;4989864;28;20125;-72
2022/05/14 03:26:12;;;;;;;0.00;0.00;;;11.90;99.90;;;;;;4991377;28;20034;-72
2022/05/14 03:28:37;;;;;;;0.00;0.00;;;12.00;99.90;;;;;;4989840;28;20038;-72
2022/05/14 03:31:03;;;;;;;0.38;0.38;;;12.00;99.90;;;;;;4989658;28;20517;-71
2022/05/14 03:33:32;;;;;;;0.40;0.40;;;12.10;99.90;;;;;;4991096;28;20073;-72
2022/05/14 03:35:57;;;;;;;0.00;0.00;;;12.10;99.90;;;;;;4989992;28;20034;-72
2022/05/14 03:38:23;;;;;;;0.10;0.10;;;12.10;99.90;;;;;;4990592;28;20048;-72
2022/05/14 03:40:49;;;;;;;0.20;0.20;;;12.00;99.90;;;;;;4990986;28;20035;-72
2022/05/14 03:43:15;;;;;;;0.00;0.00;;;12.00;99.90;;;;;;4990952;28;20022;-72
2022/05/14 03:45:41;;;;;;;0.28;0.28;;;12.00;99.90;;;;;;4990034;28;20442;-72
2022/05/14 03:48:07;;;;;;;0.03;0.03;;;12.00;99.90;;;;;;4989821;28;20069;-72
2022/05/14 03:50:33;;;;;;;0.10;0.10;;;12.00;99.90;;;;;;4989343;28;20038;-72
2022/05/14 03:52:59;;;;;;;0.10;0.10;;;12.00;99.90;;;;;;4989880;28;20034;-72
2022/05/14 03:55:25;;;;;;;0.00;0.00;;;12.00;99.90;;;;;;4990851;28;20080;-72
2022/05/14 03:57:51;;;;;;;0.08;0.08;;;12.00;99.90;;;;;;4989748;28;20080;-71
2022/05/14 04:00:19;;;;;;;0.00;0.00;;;12.00;99.90;;;;;;4990314;28;20062;-72
2022/05/14 04:02:46;;;;;;;1.00;0.98;;;12.00;99.90;;;;;;4989388;28;20513;-72
2022/05/14 04:05:14;;;;;;;0.03;0.03;;;12.00;99.90;;;;;;4989216;28;20023;-72
2022/05/14 04:07:41;;;;;;;0.15;0.15;;;12.00;99.90;;;;;;4989536;28;20066;-72
2022/05/14 04:10:09;;;;;;;0.00;0.00;;;12.00;99.90;;;;;;4990679;28;20065;-72
2022/05/14 04:12:35;;;;;;;0.10;0.10;;;11.90;99.90;;;;;;4989596;28;20058;-72
2022/05/14 04:15:01;;;;;;;0.00;0.00;;;11.80;99.90;;;;;;4995229;28;20057;-72
2022/05/14 04:17:26;;;;;;;2.35;1.90;;;11.70;99.90;;;;;;5010136;28;20026;-72
2022/05/14 04:19:52;;;;;;;0.10;0.10;;;11.70;99.90;;;;;;5009613;28;20037;-72
2022/05/14 04:22:18;;;;;;;0.03;0.03;;;11.80;99.90;;;;;;5009902;28;20232;-72
2022/05/14 04:24:43;;;;;;;0.08;0.08;;;11.90;99.90;;;;;;5009801;28;20506;-72
2022/05/14 04:27:09;;;;;;;0.00;0.00;;;11.90;99.90;;;;;;5008755;28;20585;-74
2022/05/14 04:29:35;;;;;;;0.20;0.20;;;11.80;99.90;;;;;;5008516;28;20038;-73
2022/05/14 04:32:01;;;;;;;0.00;0.00;;;11.90;99.90;;;;;;5010153;28;20061;-73
2022/05/14 04:34:26;;;;;;;0.10;0.10;;;11.90;99.90;;;;;;5009055;28;20457;-73
2022/05/14 04:36:52;;;;;;;0.10;0.10;;;11.90;99.90;;;;;;5010144;28;20095;-73
2022/05/14 04:39:18;;;;;;;0.00;0.00;;;11.80;99.90;;;;;;5009358;28;20050;-73
2022/05/14 04:41:44;;;;;;;0.00;0.00;;;11.80;99.90;;;;;;5008804;28;20101;-72
2022/05/14 04:44:09;;;;;;;0.30;0.30;;;11.90;99.90;;;;;;5013578;28;20026;-72
2022/05/14 04:46:35;;;;;;;0.55;0.55;;;11.90;99.90;;;;;;5013583;28;20025;-72
2022/05/14 04:49:03;;;;;;;0.00;0.00;;;11.90;99.90;;;;;;5011645;28;20026;-72
2022/05/14 04:51:29;;;;;;;1.10;0.77;;;11.90;99.90;;;;;;5012193;28;20270;-72
2022/05/14 04:53:54;;;;;;;0.57;0.55;;;11.90;99.90;;;;;;5013134;28;20485;-72
2022/05/14 04:56:20;;;;;;;0.00;0.00;;;12.00;99.90;;;;;;5013486;28;20141;-73
2022/05/14 04:58:46;;;;;;;0.20;0.20;;;12.10;99.90;;;;;;5012743;28;20037;-72
2022/05/14 05:01:11;;;;;;;1.10;0.70;;;12.20;99.90;;;;;;5012968;28;20034;-72
2022/05/14 05:03:37;;;;;;;0.00;0.00;;;12.30;99.90;;;;;;5011805;28;20509;-72
2022/05/14 05:06:03;;;;;;;0.50;0.50;;;12.30;99.90;;;;;;5012835;28;20038;-72
2022/05/14 05:08:32;;;;;;;0.00;0.00;;;12.40;99.90;;;;;;5013152;28;20042;-72
2022/05/14 05:10:58;;;;;;;0.20;0.15;;;12.50;99.90;;;;;;5012161;28;20049;-72
2022/05/14 05:13:28;;;;;;;0.10;0.10;;;12.50;99.90;;;;;;5009516;28;20110;-70
2022/05/14 05:15:54;;;;;;;0.05;0.05;;;12.50;99.90;;;;;;4999200;28;20060;-69
2022/05/14 05:18:21;;;;;;;2.75;1.65;;;12.50;99.90;;;;;;4993266;28;20493;-69
2022/05/14 05:20:49;;;;;;;0.00;0.00;;;12.50;99.90;;;;;;4991511;28;20343;-68
2022/05/14 05:23:19;;;;;;;0.00;0.00;;;12.60;99.90;;;;;;4993302;28;20496;-69
2022/05/14 05:25:46;;;;;;;0.25;0.25;;;12.60;99.90;;;;;;4993513;28;20472;-69
2022/05/14 05:28:12;;;;;;;0.00;0.00;;;12.70;99.90;;;;;;5012488;28;20048;-69
2022/05/14 05:30:38;;;;;;;0.00;0.00;;;12.80;99.90;;;;;;5010620;28;20072;-69
2022/05/14 05:33:04;;;;;;;0.10;0.10;;;12.80;99.90;;;;;;5012303;28;20030;-63
2022/05/14 05:35:30;;;;;;;1.35;1.25;;;12.80;99.90;;;;;;5012097;28;20068;-63
2022/05/14 05:37:55;;;;;;;0.00;0.00;;;12.90;99.90;;;;;;5012382;28;20106;-63
2022/05/14 05:40:21;;;;;;;0.00;0.00;;;13.00;99.90;;;;;;5003997;28;20109;-62
2022/05/14 05:42:47;;;;;;;0.60;0.57;;;13.10;99.90;;;;;;4992544;28;20402;-64
2022/05/14 05:45:16;;;;;;;0.00;0.00;;;13.20;99.90;;;;;;4992702;28;20101;-64
2022/05/14 05:47:42;;;;;;;0.00;0.00;;;13.30;99.90;;;;;;4992561;28;20037;-64
2022/05/14 05:50:09;;;;;;;0.00;0.00;;;13.30;99.90;;;;;;4992144;28;20034;-64
2022/05/14 05:52:35;;;;;;;1.90;1.27;;;13.30;99.90;;;;;;4992291;28;20463;-64
2022/05/14 05:57:45;;;;;;;0.00;0.00;;;13.50;99.90;;;;;;4992228;28;20074;-64
2022/05/14 06:00:21;;;;;;;0.00;0.00;;;13.50;99.90;;;;;;4991765;28;20065;-64
2022/05/14 06:02:47;;;;;;;0.32;0.32;;;13.60;99.90;;;;;;5011688;28;20033;-64
2022/05/14 06:05:17;;;;;;;0.73;0.55;;;13.60;99.90;;;;;;5011879;28;20026;-64
2022/05/14 06:07:42;;;;;;;2.10;0.77;;;13.70;99.90;;;;;;5012096;28;20018;-63
2022/05/14 06:10:14;;;;;;;0.50;0.50;;;13.80;99.90;;;;;;5011510;28;20048;-63
2022/05/14 06:12:40;;;;;;;1.73;1.58;;;13.90;99.90;;;;;;5010487;28;20038;-64
2022/05/14 06:15:13;;;;;;;0.10;0.10;;;14.00;99.90;;;;;;5011493;28;20501;-63
2022/05/14 06:17:39;;;;;;;1.45;1.30;;;14.10;99.90;;;;;;5011530;28;20033;-63
2022/05/14 06:20:09;;;;;;;2.13;1.45;;;14.20;99.90;;;;;;5011034;28;20486;-63
2022/05/14 06:22:35;;;;;;;0.20;0.20;;;14.30;99.90;;;;;;5002396;28;20075;-64
2022/05/14 06:25:03;;;;;;;0.65;0.52;;;14.30;99.90;;;;;;5011163;28;20030;-63
2022/05/14 06:27:29;;;;;;;0.00;0.00;;;14.10;99.90;;;;;;4996722;28;20026;-70
2022/05/14 06:29:54;;;;;;;0.20;0.20;;;14.30;99.90;;;;;;5002776;28;20034;-70
2022/05/14 06:32:20;;;;;;;0.00;0.00;;;14.40;99.90;;;;;;5008404;28;20032;-70
2022/05/14 06:34:46;;;;;;;0.00;0.00;;;14.60;99.90;;;;;;4995412;28;20033;-70
2022/05/14 06:37:13;;;;;;;0.00;0.00;;;14.60;99.90;;;;;;4991421;28;20402;-70
2022/05/14 06:39:40;;;;;;;0.10;0.10;;;14.70;99.90;;;;;;4990901;28;20049;-70
2022/05/14 06:42:06;;;;;;;0.35;0.35;;;14.80;99.90;;;;;;4991249;28;20034;-71
2022/05/14 06:44:32;;;;;;;0.15;0.15;;;14.90;99.90;;;;;;4991244;28;20109;-71
2022/05/14 06:46:58;;;;;;;0.15;0.15;;;14.90;99.90;;;;;;4991392;28;20112;-69
2022/05/14 06:49:24;;;;;;;0.08;0.05;;;14.90;99.90;;;;;;4990045;28;20482;-69
2022/05/14 06:51:52;;;;;;;0.00;0.00;;;15.00;99.90;;;;;;4990380;28;20045;-69
2022/05/14 06:54:20;;;;;;;0.17;0.15;;;15.10;99.90;;;;;;4990151;28;20057;-69
2022/05/14 06:56:47;;;;;;;0.00;0.00;;;15.20;99.90;;;;;;4991316;28;20489;-69
2022/05/14 06:59:14;;;;;;;0.17;0.17;;;15.30;99.90;;;;;;4989837;28;20451;-70
2022/05/14 07:01:43;;;;;;;4.28;0.70;;;15.40;99.90;;;;;;4991016;28;20066;-72
2022/05/14 07:06:58;;;;;;;0.15;0.13;;;15.60;99.90;;;;;;5002815;28;20060;-71
2022/05/14 07:09:28;;;;;;;0.00;0.00;;;15.60;99.90;;;;;;5025701;28;20041;-73
2022/05/14 07:11:59;;;;;;;0.00;0.00;;;15.70;99.90;;;;;;5010719;28;20044;-71
2022/05/14 07:14:27;;;;;;;0.10;0.10;;;15.80;99.90;;;;;;5009618;28;20037;-71
2022/05/14 07:16:54;;;;;;;0.03;0.03;;;15.90;99.90;;;;;;5009452;28;20030;-71
2022/05/14 07:19:21;;;;;;;0.00;0.00;;;15.90;99.90;;;;;;5009434;28;20210;-69
2022/05/14 07:21:50;;;;;;;0.10;0.10;;;16.00;99.90;;;;;;5009123;28;20381;-69
2022/05/14 07:24:21;;;;;;;0.00;0.00;;;16.10;99.90;;;;;;5009183;28;20463;-70
2022/05/14 07:26:49;;;;;;;0.57;0.35;;;16.30;99.90;;;;;;5010697;28;20026;-70
2022/05/14 07:29:20;;;;;;;2.60;0.30;;;16.40;99.90;;;;;;5008761;28;20033;-69
2022/05/14 07:31:46;;;;;;;0.00;0.00;;;16.60;99.80;;;;;;5009170;28;20496;-69
2022/05/14 07:34:12;;;;;;;0.28;0.28;;;16.70;99.10;;;;;;5009387;28;20042;-69
2022/05/14 07:36:50;;;;;;;0.00;0.00;;;16.90;99.10;;;;;;5010430;28;20037;-69
2022/05/14 07:39:18;;;;;;;0.00;0.00;;;17.10;99.90;;;;;;5009999;28;20061;-69
2022/05/14 07:41:48;;;;;;;0.22;0.22;;;17.10;98.40;;;;;;5002749;28;20157;-69
2022/05/14 07:44:17;;;;;;;0.00;0.00;;;17.20;99.90;;;;;;5023920;28;20026;-69
2022/05/14 07:46:47;;;;;;;8.98;0.68;;;17.30;98.40;;;;;;5008867;28;20489;-69
2022/05/14 07:49:16;;;;;;;2.08;1.23;;;17.20;98.00;;;;;;5008634;28;20037;-69
2022/05/14 07:51:42;;;;;;;0.10;0.10;;;17.10;98.20;;;;;;5025088;28;20037;-69
2022/05/14 07:54:08;;;;;;;0.08;0.08;;;17.20;98.40;;;;;;5001090;28;20037;-69
2022/05/14 07:56:35;;;;;;;4.85;0.30;;;17.40;98.10;;;;;;5008442;28;20034;-69
2022/05/14 07:59:01;;;;;;;0.00;0.00;;;17.40;98.00;;;;;;5000434;28;20534;-69
2022/05/14 08:01:27;;;;;;;0.00;0.00;;;17.50;97.90;;;;;;4995944;28;20057;-70
2022/05/14 08:03:53;;;;;;;0.03;0.03;;;17.50;97.80;;;;;;5010676;28;20105;-70
2022/05/14 08:06:19;;;;;;;1.85;0.47;;;17.60;97.80;;;;;;5010251;28;20164;-71
2022/05/14 08:08:45;;;;;;;0.15;0.08;;;17.70;97.80;;;;;;5006250;28;20033;-63
2022/05/14 08:11:11;;;;;;;0.10;0.10;;;17.90;98.60;;;;;;5007337;28;20478;-64
2022/05/14 08:13:37;;;;;;;0.35;0.30;;;18.10;97.50;;;;;;4994255;28;20033;-64
2022/05/14 08:16:04;;;;;;;0.32;0.30;;;18.10;97.40;;;;;;4998563;28;20402;-63
2022/05/14 08:18:30;;;;;;;0.30;0.30;;;18.10;97.00;;;;;;4992977;28;20037;-65
2022/05/14 08:20:57;;;;;;;0.00;0.00;;;18.20;96.60;;;;;;4992780;28;20030;-65
2022/05/14 08:26:08;;;;;;;2.35;1.33;;;18.40;96.60;;;;;;4992898;28;20023;-65
2022/05/14 08:28:34;;;;;;;0.00;0.00;;;18.60;96.40;;;;;;4994061;28;20038;-66
2022/05/14 08:31:00;;;;;;;0.55;0.38;;;18.60;96.40;;;;;;4992359;28;20475;-65
2022/05/14 08:33:27;;;;;;;1.00;0.73;;;18.40;96.80;;;;;;4993705;28;20045;-65
2022/05/14 08:35:54;;;;;;;0.25;0.25;;;18.60;96.30;;;;;;4992518;28;20030;-65
2022/05/14 08:38:23;;;;;;;0.00;0.00;;;18.70;96.20;;;;;;4992288;28;20034;-65
2022/05/14 08:40:57;;;;;;;0.50;0.50;;;18.70;96.90;;;;;;5011621;28;20470;-65
2022/05/14 08:43:42;;;;;;;0.90;0.88;;;18.80;95.50;;;;;;4996074;28;20107;-66
2022/05/14 08:46:12;;;;;;;0.45;0.45;;;19.00;95.20;;;;;;5012153;28;20113;-65
2022/05/14 08:48:39;;;;;;;0.10;0.00;;;19.20;95.30;;;;;;5011616;28;20413;-63
2022/05/14 08:51:18;;;;;;;0.00;0.00;;;19.50;95.00;;;;;;5028294;28;20088;-63
2022/05/14 08:53:47;;;;;;;0.35;0.30;;;19.70;92.70;;;;;;5013257;28;20038;-69
2022/05/14 08:56:36;;;;;;;0.00;0.00;;;19.60;92.10;;;;;;5012163;28;20467;-64
2022/05/14 08:59:15;;;;;;;0.00;0.00;;;19.40;92.80;;;;;;4995586;28;20092;-64
2022/05/14 09:01:44;;;;;;;0.20;0.20;;;19.50;93.40;;;;;;5012626;28;20033;-64
2022/05/14 09:04:13;;;;;;;0.32;0.32;;;19.70;93.80;;;;;;5011551;28;20096;-64
2022/05/14 09:06:40;;;;;;;0.00;0.00;;;19.80;93.00;;;;;;5012709;28;20022;-64
2022/05/14 09:09:07;;;;;;;0.10;0.10;;;19.80;93.50;;;;;;5011194;28;20038;-62
2022/05/14 09:11:58;;;;;;;1.75;1.23;;;19.90;92.20;;;;;;5012618;28;20026;-64
2022/05/14 09:14:29;;;;;;;;;;;19.90;92.10;;;;;;5028517;28;20458;-64
2022/05/14 09:17:12;;;;;;;0.00;0.00;;;20.00;92.00;;;;;;5013050;28;19910;-63
2022/05/14 09:19:43;;;;;;;0.85;0.40;;;19.80;92.10;;;;;;5012231;28;20081;-65
2022/05/14 09:22:23;;;;;;;0.00;0.00;;;19.70;92.30;;;;;;5011281;28;20432;-64
2022/05/14 09:24:51;;;;;;;0.80;0.65;;;19.90;92.50;;;;;;5012222;28;20062;-64
2022/05/14 09:27:42;;;;;;;0.00;0.00;;;20.10;91.70;;;;;;5011023;28;20025;-65
2022/05/14 09:30:22;;;;;;;0.35;0.35;;;19.90;91.90;;;;;;5011282;28;20568;-64
2022/05/14 09:32:49;;;;;;;0.00;0.00;;;20.10;92.10;;;;;;5012577;28;20087;-66
2022/05/14 09:35:28;;;;;;;0.03;0.03;;;20.20;91.90;;;;;;5011053;28;20025;-64
2022/05/14 09:38:12;;;;;;;0.05;0.05;;;20.20;91.60;;;;;;4995331;28;20119;-65
2022/05/14 09:40:39;;;;;;;0.13;0.13;;;20.50;91.70;;;;;;5010724;28;20370;-62
2022/05/14 09:43:21;;;;;;;0.30;0.30;;;20.70;91.00;;;;;;5011086;28;20033;-64
2022/05/14 09:46:11;;;;;;;0.00;0.00;;;20.90;91.10;;;;;;5010924;28;20030;-65
2022/05/14 09:48:43;;;;;;;0.70;0.57;;;21.10;90.90;;;;;;5010482;28;20026;-64
2022/05/14 09:51:09;;;;;;;0.38;0.17;;;21.40;89.10;;;;;;5011842;28;20071;-65
2022/05/14 09:53:43;;;;;;;0.00;0.00;;;21.20;90.60;;;;;;5010505;28;20136;-67
2022/05/14 09:56:51;;;;;;;0.00;0.00;;;21.10;89.90;;;;;;5010775;28;20087;-68
2022/05/14 09:59:45;;;;;;;0.00;0.00;;;21.30;89.20;;;;;;5006211;28;20451;-67
2022/05/14 10:02:55;;;;;;;0.85;0.70;;;21.20;88.70;;;;;;5011667;28;20075;-63
2022/05/14 10:06:12;;;;;;;0.32;0.30;;;21.20;88.10;;;;;;5011804;28;20033;-64
2022/05/14 10:09:18;;;;;;;8.23;0.55;;;21.40;87.50;;;;;;5010570;28;20038;-64
2022/05/14 10:12:01;;;;;;;2.15;1.30;;;21.60;84.70;;;;;;5008718;28;20107;-66
2022/05/14 10:14:29;;;;;;;0.15;0.15;;;21.70;87.30;;;;;;5010391;28;20029;-66
2022/05/14 10:17:13;;;;;;;0.00;0.00;;;21.90;87.20;;;;;;5011634;28;20342;-67
2022/05/14 10:20:04;;;;;;;0.00;0.00;;;21.80;85.70;;;;;;5011247;28;20046;-65
2022/05/14 10:26:46;;;;;;;0.20;0.20;;;22.20;85.50;;;;;;5011380;28;20034;-67
2022/05/14 10:29:56;;;;;;;0.00;0.00;;;22.20;84.50;;;;;;5010231;28;20025;-67
2022/05/14 10:32:29;;;;;;;0.07;0.07;;;22.60;82.50;;;;;;4968298;28;20076;-71
2022/05/14 10:35:27;;;;;;;0.15;0.15;;;22.60;84.50;;;;;;4990413;28;20149;-71
2022/05/14 10:38:20;;;;;;;0.00;0.00;;;22.60;81.60;;;;;;4978257;28;20041;-72
2022/05/14 10:40:53;;;;;;;0.00;0.00;;;22.80;81.70;;;;;;4976837;28;20035;-71
2022/05/14 10:44:01;;;;;;;0.17;0.17;;;22.20;82.10;;;;;;4982088;28;20027;-71
2022/05/14 10:46:29;;;;;;;0.00;0.00;;;22.50;82.20;;;;;;4991494;28;20033;-71
2022/05/14 10:49:16;;;;;;;0.08;0.08;;;22.90;79.40;;;;;;4990031;28;20048;-71
2022/05/14 10:51:50;;;;;;;0.00;0.00;;;23.30;80.30;;;;;;4978913;28;20034;-71
2022/05/14 10:54:20;;;;;;;0.10;0.10;;;23.40;78.10;;;;;;4974881;28;20453;-71
2022/05/14 10:56:56;;;;;;;0.13;0.13;;;23.70;79.10;;;;;;4991522;28;20084;-71
2022/05/14 11:00:11;;;;;;;1.67;0.75;;;23.80;76.80;;;;;;4991119;28;20030;-71
2022/05/14 11:03:10;;;;;;;7.78;0.63;;;23.30;77.90;;;;;;4990061;28;20042;-71
2022/05/14 11:06:09;;;;;;;0.32;0.22;;;23.00;77.60;;;;;;4990327;28;20026;-71
2022/05/14 11:08:43;;;;;;;0.13;0.13;;;23.10;78.10;;;;;;4991081;28;20041;-71
2022/05/14 11:11:32;;;;;;;0.10;0.00;;;22.90;78.10;;;;;;4991340;28;20042;-70
2022/05/14 11:14:07;;;;;;;0.30;0.20;;;23.40;77.00;;;;;;4990198;28;20054;-70
2022/05/14 11:16:51;;;;;;;0.52;0.35;;;23.60;77.60;;;;;;4989868;28;20026;-71
2022/05/14 11:19:33;;;;;;;2.05;0.43;;;23.80;76.50;;;;;;4989589;28;20089;-70
2022/05/14 11:22:01;;;;;;;0.45;0.45;;;24.30;75.20;;;;;;4990237;28;20030;-71
2022/05/14 11:24:46;;;;;;;0.38;0.38;;;24.30;75.20;;;;;;4990258;28;20061;-70
2022/05/14 11:27:14;;;;;;;0.00;0.00;;;24.70;75.60;;;;;;4991197;28;20113;-70
2022/05/14 11:29:55;;;;;;;0.20;0.20;;;24.50;74.50;;;;;;5005771;28;20088;-69
2022/05/14 11:32:23;;;;;;;1.17;0.85;;;24.40;76.30;;;;;;4991086;28;20026;-70
2022/05/14 11:34:56;;;;;;;2.25;0.20;;;24.70;74.60;;;;;;4989833;28;20034;-69
2022/05/14 11:37:37;;;;;;;0.10;0.05;;;24.80;73.60;;;;;;4990798;28;20494;-70
2022/05/14 11:40:23;;;;;;;0.03;0.00;;;24.50;73.60;;;;;;4990433;28;20034;-70
2022/05/14 11:43:33;;;;;;;0.60;0.20;;;24.40;74.40;;;;;;4990837;28;20177;-70
2022/05/14 11:46:27;;;;;;;0.00;0.00;;;24.60;74.10;;;;;;4982902;28;20049;-69
2022/05/14 11:49:15;;;;;;;0.20;0.20;;;24.40;73.50;;;;;;4990749;28;20575;-69
2022/05/14 11:52:07;;;;;;;0.80;0.57;;;24.60;73.20;;;;;;4992646;28;20065;-70
2022/05/14 11:55:17;;;;;;;0.00;0.00;;;24.40;74.40;;;;;;4993519;28;20088;-70
2022/05/14 11:58:12;;;;;;;17.20;0.65;;;24.60;74.20;;;;;;4986362;28;20697;-71
2022/05/14 12:00:41;;;;;;;0.08;0.08;;;24.40;72.10;;;;;;4977374;28;20033;-71
2022/05/14 12:03:24;;;;;;;0.00;0.00;;;25.00;72.10;;;;;;4993702;28;20129;-71
2022/05/14 12:06:38;;;;;;;0.00;0.00;;;24.90;73.50;;;;;;4993553;28;20038;-69
2022/05/14 12:09:04;;;;;;;0.00;0.00;;;25.10;71.80;;;;;;4992872;28;20085;-69
2022/05/14 12:12:08;;;;;;;0.10;0.00;;;25.10;72.30;;;;;;4994411;28;20121;-70
2022/05/14 12:14:38;;;;;;;0.00;0.00;;;25.70;71.60;;;;;;4994235;28;20498;-70
2022/05/14 12:17:08;;;;;;;0.00;0.00;;;26.30;70.60;;;;;;4976999;28;20038;-70
2022/05/14 12:19:38;;;;;;;0.20;0.10;;;26.50;71.40;;;;;;4991773;28;20045;-70
2022/05/14 12:22:15;;;;;;;0.50;0.40;;;26.90;69.20;;;;;;4975883;28;20041;-70
2022/05/14 12:25:00;;;;;;;1.67;0.82;;;27.20;68.50;;;;;;4973831;28;20019;-70
2022/05/14 12:27:29;;;;;;;0.10;0.10;;;26.60;67.90;;;;;;4958584;28;20027;-70
2022/05/14 12:30:05;;;;;;;0.38;0.30;;;26.50;69.10;;;;;;4974058;28;20069;-70
2022/05/14 12:35:24;;;;;;;0.22;0.15;;;25.50;69.50;;;;;;4973459;28;20034;-70
2022/05/14 12:37:56;;;;;;;0.00;0.00;;;26.50;69.30;;;;;;4974423;28;20398;-70
2022/05/14 12:40:35;;;;;;;0.20;0.10;;;26.90;67.00;;;;;;4987653;28;20070;-70
2022/05/14 12:43:12;;;;;;;1.23;0.98;;;27.20;66.50;;;;;;4992566;28;20046;-70
2022/05/14 12:45:45;;;;;;;0.55;0.45;;;27.30;65.00;;;;;;4993066;28;20026;-71
2022/05/14 12:48:15;;;;;;;0.00;0.00;;;27.20;66.00;;;;;;4993734;28;20034;-71
2022/05/14 12:50:53;;;;;;;0.20;0.10;;;27.60;66.30;;;;;;4992358;28;20022;-70
2022/05/14 12:53:19;;;;;;;0.20;0.20;;;27.00;65.50;;;;;;4992265;28;20805;-71
2022/05/14 12:55:51;;;;;;;1.08;0.70;;;26.60;65.70;;;;;;4992315;28;20088;-70
2022/05/14 12:58:18;;;;;;;0.22;0.00;;;26.80;64.00;;;;;;4992361;28;20022;-70
2022/05/14 13:00:49;;;;;;;0.00;0.00;;;27.40;64.40;;;;;;4991813;28;20034;-70
2022/05/14 13:03:32;;;;;;;1.05;0.52;;;27.80;64.00;;;;;;4991506;28;20026;-70
2022/05/14 13:06:12;;;;;;;0.00;0.00;;;27.00;63.70;;;;;;5008649;28;20041;-69
2022/05/14 13:08:49;;;;;;;0.10;0.10;;;27.60;63.10;;;;;;4991489;28;20026;-68
2022/05/14 13:11:27;;;;;;;0.08;0.08;;;27.60;64.40;;;;;;4992255;28;20045;-67
2022/05/14 13:13:59;;;;;;;1.85;0.68;;;28.50;61.80;;;;;;4992985;28;20070;-67
2022/05/14 13:16:29;;;;;;;0.77;0.40;;;28.50;62.50;;;;;;4992018;28;20399;-66
2022/05/14 13:19:18;;;;;;;0.98;0.70;;;28.70;60.70;;;;;;4992615;28;20037;-63
2022/05/14 13:21:53;;;;;;;1.08;0.25;;;27.70;62.40;;;;;;4991904;28;20030;-63
2022/05/14 13:24:35;;;;;;;0.43;0.40;;;28.20;62.20;;;;;;4993046;28;20054;-64
2022/05/14 13:27:11;;;;;;;0.40;0.32;;;27.40;63.00;;;;;;4993009;28;20057;-62
2022/05/14 13:29:41;;;;;;;0.10;0.10;;;28.00;61.20;;;;;;4976205;28;20034;-66
2022/05/14 13:32:27;;;;;;;0.00;0.00;;;28.00;61.70;;;;;;4992856;28;20037;-66
2022/05/14 13:37:47;;;;;;;0.00;0.00;;;28.70;60.10;;;;;;4993036;28;20031;-69